Time;durP1;ratioP1;P1;durP2;ratioP2;P2;SDS_P1;SDS_P2;PMS_P1;PMS_P2;Temp;Humidity;BMP_temperature;BMP_pressure;BME280_temperature;BME280_humidity;BME280_pressure;Samples;Min_cycle;Max_cycle;Signal;HPM_P1;HPM_P2
2022/07/10 00:00:37;;;;;;;5.88;1.85;;;15.00;99.90;;;;;;5047051;28;20029;-63
2022/07/10 00:03:04;;;;;;;7.82;2.00;;;15.10;99.90;;;;;;5027852;28;20048;-63
2022/07/10 00:05:31;;;;;;;8.40;2.10;;;15.00;99.90;;;;;;5048782;28;20063;-63
2022/07/10 00:07:57;;;;;;;6.15;1.70;;;15.00;99.90;;;;;;5047686;28;20669;-63
2022/07/10 00:10:23;;;;;;;8.60;1.65;;;14.90;99.90;;;;;;5030602;28;20345;-63
2022/07/10 00:12:50;;;;;;;7.00;1.60;;;14.90;99.90;;;;;;5045549;28;20048;-62
2022/07/10 00:15:17;;;;;;;7.90;2.17;;;14.90;99.90;;;;;;5043378;28;20040;-62
2022/07/10 00:17:44;;;;;;;4.07;1.77;;;14.90;99.90;;;;;;5048494;28;20040;-63
2022/07/10 00:20:11;;;;;;;6.68;1.48;;;14.90;99.90;;;;;;5048053;28;20072;-62
2022/07/10 00:22:40;;;;;;;6.75;1.90;;;14.90;99.90;;;;;;5025140;28;20063;-63
2022/07/10 00:25:08;;;;;;;6.90;1.50;;;14.80;99.90;;;;;;5025964;28;20436;-62
2022/07/10 00:27:33;;;;;;;6.43;1.90;;;14.80;99.90;;;;;;5046470;28;20091;-64
2022/07/10 00:29:59;;;;;;;5.80;1.30;;;14.70;99.90;;;;;;5046835;28;20037;-62
2022/07/10 00:32:25;;;;;;;5.53;1.58;;;14.60;99.90;;;;;;5046336;28;20123;-62
2022/07/10 00:34:51;;;;;;;8.20;2.17;;;14.60;99.90;;;;;;5047849;28;20051;-62
2022/07/10 00:37:17;;;;;;;6.35;1.90;;;14.50;99.90;;;;;;5047087;28;20041;-63
2022/07/10 00:39:43;;;;;;;6.45;1.88;;;14.50;99.90;;;;;;5046350;28;20028;-63
2022/07/10 00:42:11;;;;;;;5.07;1.60;;;14.50;99.90;;;;;;5046420;28;20041;-63
2022/07/10 00:44:37;;;;;;;7.03;1.88;;;14.50;99.90;;;;;;5034955;28;20044;-63
2022/07/10 00:47:07;;;;;;;6.57;1.50;;;14.50;99.90;;;;;;5046614;28;20037;-63
2022/07/10 00:49:34;;;;;;;6.82;1.77;;;14.50;99.90;;;;;;5031882;28;20045;-63
2022/07/10 00:52:02;;;;;;;7.97;2.03;;;14.40;99.90;;;;;;5050798;28;20066;-63
2022/07/10 00:54:32;;;;;;;6.53;1.80;;;14.40;99.90;;;;;;5049910;28;20072;-63
2022/07/10 00:56:58;;;;;;;6.30;1.77;;;14.30;99.90;;;;;;5050386;28;20045;-63
2022/07/10 00:59:25;;;;;;;6.90;2.10;;;14.20;99.90;;;;;;5050807;28;20036;-63
2022/07/10 01:01:51;;;;;;;7.82;1.65;;;14.20;99.90;;;;;;5049948;28;20714;-62
2022/07/10 01:04:17;;;;;;;7.97;2.03;;;14.10;99.90;;;;;;5036101;28;20359;-63
2022/07/10 01:06:43;;;;;;;5.50;1.65;;;14.10;99.90;;;;;;5049855;28;20047;-63
2022/07/10 01:09:09;;;;;;;8.77;1.70;;;14.20;99.90;;;;;;5051624;28;20045;-64
2022/07/10 01:11:36;;;;;;;8.38;1.60;;;14.00;99.90;;;;;;5049356;28;20033;-63
2022/07/10 01:14:02;;;;;;;7.63;1.65;;;14.00;99.90;;;;;;5056193;28;20639;-63
2022/07/10 01:16:29;;;;;;;5.50;1.35;;;13.90;99.90;;;;;;5050785;28;20112;-63
2022/07/10 01:18:55;;;;;;;7.00;1.65;;;13.90;99.90;;;;;;5053018;28;20058;-63
2022/07/10 01:21:30;;;;;;;7.00;1.85;;;14.00;99.90;;;;;;5049967;28;20033;-63
2022/07/10 01:23:57;;;;;;;8.30;1.70;;;13.90;99.90;;;;;;5028671;28;20046;-63
2022/07/10 01:26:23;;;;;;;7.63;2.35;;;13.80;99.90;;;;;;5049674;28;20045;-63
2022/07/10 01:28:53;;;;;;;5.60;1.67;;;13.80;99.90;;;;;;5030368;28;20076;-63
2022/07/10 01:31:39;;;;;;;8.65;1.70;;;13.70;99.90;;;;;;5048502;28;20091;-63
2022/07/10 01:34:09;;;;;;;6.28;1.60;;;13.60;99.90;;;;;;5053400;28;20087;-64
2022/07/10 01:36:35;;;;;;;10.55;1.85;;;13.60;99.90;;;;;;5051232;28;20132;-64
2022/07/10 01:39:00;;;;;;;9.55;1.90;;;13.50;99.90;;;;;;5032497;28;20135;-63
2022/07/10 01:41:26;;;;;;;6.03;1.52;;;13.50;99.90;;;;;;5048324;28;20044;-63
2022/07/10 01:43:52;;;;;;;7.90;1.80;;;13.50;99.90;;;;;;5052482;28;20060;-63
2022/07/10 01:46:18;;;;;;;5.63;1.55;;;13.50;99.90;;;;;;5033898;28;20063;-63
2022/07/10 01:48:44;;;;;;;8.35;2.08;;;13.50;99.90;;;;;;5051028;28;20037;-63
2022/07/10 01:51:11;;;;;;;5.50;1.92;;;13.50;99.90;;;;;;5049602;28;20034;-63
2022/07/10 01:53:37;;;;;;;8.15;1.90;;;13.40;99.90;;;;;;5040593;28;20048;-64
2022/07/10 01:56:08;;;;;;;9.48;1.63;;;13.40;99.90;;;;;;5045612;28;20033;-64
2022/07/10 01:58:34;;;;;;;5.97;1.40;;;13.50;99.90;;;;;;5051305;28;20037;-64
2022/07/10 02:01:00;;;;;;;5.13;1.45;;;13.40;99.90;;;;;;5048789;28;20028;-63
2022/07/10 02:06:11;;;;;;;;;;;13.50;99.90;;;;;;5053105;28;20053;-63
2022/07/10 02:08:36;;;;;;;9.15;2.08;;;13.50;99.90;;;;;;5050661;28;20023;-63
2022/07/10 02:11:02;;;;;;;6.88;1.83;;;13.40;99.90;;;;;;5047866;28;20124;-63
2022/07/10 02:13:28;;;;;;;6.13;1.67;;;13.40;99.90;;;;;;5045889;28;20120;-64
2022/07/10 02:15:54;;;;;;;6.97;1.63;;;13.50;99.90;;;;;;5049887;28;20166;-64
2022/07/10 02:18:20;;;;;;;8.88;1.95;;;13.40;99.90;;;;;;5050177;28;20029;-63
2022/07/10 02:20:46;;;;;;;6.78;1.70;;;13.40;99.90;;;;;;5050289;28;20500;-63
2022/07/10 02:23:12;;;;;;;10.35;2.13;;;13.40;99.90;;;;;;5047378;28;20049;-64
2022/07/10 02:25:38;;;;;;;8.20;1.80;;;13.40;99.90;;;;;;5046804;28;20092;-65
2022/07/10 02:28:04;;;;;;;4.65;1.58;;;13.30;99.90;;;;;;5032952;28;20055;-63
2022/07/10 02:30:30;;;;;;;7.72;1.83;;;13.30;99.90;;;;;;5030759;28;20049;-64
2022/07/10 02:32:56;;;;;;;12.73;2.55;;;13.40;99.90;;;;;;5049872;28;20037;-63
2022/07/10 02:35:21;;;;;;;9.15;2.20;;;13.40;99.90;;;;;;5053150;28;20450;-64
2022/07/10 02:37:47;;;;;;;6.78;1.60;;;13.40;99.90;;;;;;5050021;28;20520;-64
2022/07/10 02:40:13;;;;;;;9.48;2.35;;;13.20;99.90;;;;;;5041161;28;20408;-64
2022/07/10 02:42:38;;;;;;;10.80;1.80;;;13.30;99.90;;;;;;5048742;28;20536;-63
2022/07/10 02:45:04;;;;;;;6.55;1.88;;;13.30;99.90;;;;;;5051217;28;20041;-64
2022/07/10 02:47:30;;;;;;;5.70;1.95;;;13.30;99.90;;;;;;5028633;28;20064;-64
2022/07/10 02:49:56;;;;;;;8.70;2.05;;;13.20;99.90;;;;;;5043622;28;20040;-64
2022/07/10 02:52:21;;;;;;;7.68;2.08;;;13.20;99.90;;;;;;5050992;28;20125;-63
2022/07/10 02:54:47;;;;;;;7.93;1.77;;;13.30;99.90;;;;;;5048945;28;20094;-64
2022/07/10 02:57:13;;;;;;;7.45;1.80;;;13.10;99.90;;;;;;5030280;28;20037;-64
2022/07/10 02:59:38;;;;;;;10.27;2.30;;;13.20;99.90;;;;;;5037437;28;20505;-64
2022/07/10 03:02:04;;;;;;;8.30;2.00;;;13.20;99.90;;;;;;5030857;28;20046;-64
2022/07/10 03:04:30;;;;;;;8.27;1.77;;;13.20;99.90;;;;;;5048152;28;20039;-64
2022/07/10 03:06:56;;;;;;;7.78;1.88;;;13.20;99.90;;;;;;5049263;28;20435;-63
2022/07/10 03:09:21;;;;;;;8.35;2.28;;;13.20;99.90;;;;;;5049537;28;20472;-64
2022/07/10 03:11:47;;;;;;;7.97;1.90;;;13.10;99.90;;;;;;5047023;28;20117;-63
2022/07/10 03:14:12;;;;;;;9.75;2.17;;;13.20;99.90;;;;;;5028600;28;20041;-64
2022/07/10 03:16:38;;;;;;;6.88;1.70;;;13.20;99.90;;;;;;5046432;28;20057;-64
2022/07/10 03:19:04;;;;;;;7.22;2.13;;;13.20;99.90;;;;;;5050083;28;20025;-64
2022/07/10 03:21:32;;;;;;;8.45;1.98;;;13.40;99.90;;;;;;5048831;28;20453;-64
2022/07/10 03:23:58;;;;;;;8.15;1.83;;;13.40;99.90;;;;;;5026827;28;20436;-64
2022/07/10 03:26:23;;;;;;;8.50;1.70;;;13.40;99.90;;;;;;5047530;28;20040;-64
2022/07/10 03:28:49;;;;;;;8.23;1.88;;;13.50;99.90;;;;;;5029420;28;20132;-65
2022/07/10 03:31:14;;;;;;;7.35;1.70;;;13.50;99.90;;;;;;5041297;28;20042;-64
2022/07/10 03:33:40;;;;;;;6.90;2.03;;;13.60;99.90;;;;;;5050877;28;20044;-65
2022/07/10 03:36:06;;;;;;;9.32;1.80;;;13.60;99.90;;;;;;5041259;28;20139;-64
2022/07/10 03:38:32;;;;;;;7.90;1.92;;;13.60;99.90;;;;;;5030502;28;20045;-64
2022/07/10 03:40:58;;;;;;;5.43;1.38;;;13.70;99.90;;;;;;5040267;28;20037;-64
2022/07/10 03:43:27;;;;;;;8.30;1.88;;;13.70;99.90;;;;;;5050073;28;20112;-64
2022/07/10 03:45:52;;;;;;;9.32;1.77;;;13.80;99.90;;;;;;5043971;28;20034;-64
2022/07/10 03:48:18;;;;;;;11.63;1.98;;;13.80;99.90;;;;;;5038985;28;20052;-64
2022/07/10 03:50:43;;;;;;;8.93;1.60;;;13.90;99.90;;;;;;5048323;28;20068;-64
2022/07/10 03:53:09;;;;;;;5.68;1.48;;;13.90;99.90;;;;;;5041912;28;20474;-64
2022/07/10 03:55:35;;;;;;;6.55;1.92;;;14.00;99.90;;;;;;5037378;28;20090;-64
2022/07/10 03:58:03;;;;;;;10.60;1.90;;;14.00;99.90;;;;;;5037588;28;20041;-64
2022/07/10 04:00:33;;;;;;;6.43;1.63;;;13.90;99.90;;;;;;5032651;28;20029;-64
2022/07/10 04:03:04;;;;;;;6.68;1.50;;;14.00;99.90;;;;;;5045217;28;20045;-64
2022/07/10 04:05:31;;;;;;;6.32;1.50;;;14.00;99.90;;;;;;5046043;28;20458;-64
2022/07/10 04:07:58;;;;;;;10.35;1.50;;;14.00;99.90;;;;;;5047309;28;20119;-63
2022/07/10 04:10:25;;;;;;;8.82;1.85;;;14.00;99.90;;;;;;5030680;28;20040;-63
2022/07/10 04:12:51;;;;;;;10.23;2.10;;;14.10;99.90;;;;;;5034707;28;20044;-63
2022/07/10 04:15:17;;;;;;;6.70;1.42;;;14.20;99.90;;;;;;5043023;28;20071;-64
2022/07/10 04:17:43;;;;;;;6.60;1.33;;;14.20;99.90;;;;;;5015825;28;20048;-63
2022/07/10 04:20:10;;;;;;;8.13;1.50;;;14.30;99.90;;;;;;5048681;28;20118;-64
2022/07/10 04:22:35;;;;;;;6.30;1.63;;;14.30;99.90;;;;;;5045518;28;20124;-64
2022/07/10 04:25:01;;;;;;;9.48;1.58;;;14.50;99.90;;;;;;5051905;28;20120;-64
2022/07/10 04:27:27;;;;;;;9.40;1.35;;;14.40;99.90;;;;;;5043940;28;20045;-64
2022/07/10 04:29:53;;;;;;;10.43;2.20;;;14.50;99.90;;;;;;5047009;28;20550;-64
2022/07/10 04:32:18;;;;;;;9.48;1.65;;;14.50;99.90;;;;;;5047807;28;20374;-63
2022/07/10 04:34:44;;;;;;;4.50;1.40;;;14.60;99.90;;;;;;5047838;28;20037;-64
2022/07/10 04:37:10;;;;;;;8.20;1.73;;;14.60;99.90;;;;;;5047766;28;20045;-64
2022/07/10 04:39:37;;;;;;;7.25;2.00;;;14.60;99.90;;;;;;5043192;28;20029;-64
2022/07/10 04:42:04;;;;;;;5.80;1.60;;;14.60;99.90;;;;;;5046591;28;20041;-63
2022/07/10 04:44:30;;;;;;;6.35;1.70;;;14.60;99.90;;;;;;5046044;28;20038;-63
2022/07/10 04:46:56;;;;;;;7.88;1.95;;;14.70;99.90;;;;;;5044420;28;20037;-63
2022/07/10 04:49:22;;;;;;;13.38;1.90;;;14.70;99.90;;;;;;5046792;28;20164;-63
2022/07/10 04:51:48;;;;;;;8.15;2.33;;;14.60;99.90;;;;;;5030058;28;20045;-64
2022/07/10 04:54:14;;;;;;;7.50;1.90;;;14.60;99.90;;;;;;5049871;28;20361;-63
2022/07/10 04:56:40;;;;;;;8.27;1.77;;;14.60;99.90;;;;;;5025952;28;20514;-64
2022/07/10 04:59:06;;;;;;;7.55;1.92;;;14.60;99.90;;;;;;5028434;28;20037;-63
2022/07/10 05:01:31;;;;;;;7.15;2.05;;;14.70;99.90;;;;;;5046419;28;20378;-63
2022/07/10 05:03:57;;;;;;;10.35;2.15;;;14.70;99.90;;;;;;5046981;28;20049;-63
2022/07/10 05:06:23;;;;;;;7.35;1.80;;;14.70;99.90;;;;;;5029100;28;20048;-64
2022/07/10 05:08:49;;;;;;;9.43;1.90;;;14.70;99.90;;;;;;5047813;28;20037;-65
2022/07/10 05:11:14;;;;;;;8.23;2.20;;;14.70;99.90;;;;;;5040999;28;20041;-63
2022/07/10 05:13:43;;;;;;;7.25;1.85;;;14.80;99.90;;;;;;5045881;28;20136;-63
2022/07/10 05:16:09;;;;;;;6.28;1.92;;;14.80;99.90;;;;;;5027560;28;20053;-64
2022/07/10 05:18:35;;;;;;;9.88;2.15;;;14.80;99.90;;;;;;5047510;28;20543;-63
2022/07/10 05:21:00;;;;;;;12.18;2.28;;;14.90;99.90;;;;;;5027101;28;20068;-64
2022/07/10 05:23:26;;;;;;;8.13;2.00;;;14.90;99.90;;;;;;5027288;28;20049;-64
2022/07/10 05:25:52;;;;;;;11.20;2.17;;;15.00;99.90;;;;;;5044192;28;20460;-64
2022/07/10 05:28:17;;;;;;;5.38;2.08;;;15.00;99.90;;;;;;5047231;28;20049;-64
2022/07/10 05:30:43;;;;;;;6.07;1.90;;;15.00;99.90;;;;;;5048170;28;20071;-64
2022/07/10 05:33:09;;;;;;;7.28;1.90;;;15.10;99.90;;;;;;5047163;28;20043;-64
2022/07/10 05:35:34;;;;;;;7.63;2.05;;;15.20;99.90;;;;;;5047413;28;20118;-63
2022/07/10 05:38:00;;;;;;;8.23;2.10;;;15.20;99.90;;;;;;5048357;28;20036;-63
2022/07/10 05:40:26;;;;;;;8.23;2.00;;;15.30;99.90;;;;;;5048887;28;20040;-64
2022/07/10 05:42:52;;;;;;;8.50;2.35;;;15.30;99.90;;;;;;5049336;28;20111;-64
2022/07/10 05:45:18;;;;;;;8.35;2.13;;;15.40;99.90;;;;;;5034935;28;20069;-64
2022/07/10 05:47:44;;;;;;;7.68;1.88;;;15.40;99.90;;;;;;5047875;28;20033;-64
2022/07/10 05:50:11;;;;;;;7.35;2.10;;;15.50;99.90;;;;;;5044749;28;20043;-64
2022/07/10 05:52:37;;;;;;;9.70;2.10;;;15.50;99.90;;;;;;5044712;28;20158;-64
2022/07/10 05:55:06;;;;;;;8.00;2.13;;;15.50;99.90;;;;;;5045895;28;20064;-63
2022/07/10 05:57:32;;;;;;;9.77;2.15;;;15.50;99.90;;;;;;5037513;28;20039;-64
2022/07/10 05:59:57;;;;;;;9.90;2.00;;;15.50;99.90;;;;;;5023167;28;20124;-63
2022/07/10 06:02:23;;;;;;;6.45;2.00;;;15.50;99.90;;;;;;5049968;28;20037;-63
2022/07/10 06:04:49;;;;;;;11.45;2.30;;;15.50;99.90;;;;;;5051067;28;20041;-63
2022/07/10 06:07:15;;;;;;;8.60;2.33;;;15.60;99.90;;;;;;5032824;28;20033;-64
2022/07/10 06:09:41;;;;;;;8.70;2.40;;;15.50;99.90;;;;;;5050099;28;20083;-64
2022/07/10 06:12:08;;;;;;;7.90;1.90;;;15.60;99.90;;;;;;5048577;28;20120;-64
2022/07/10 06:14:34;;;;;;;9.70;3.00;;;15.60;99.90;;;;;;5048410;28;20400;-64
2022/07/10 06:17:00;;;;;;;9.85;2.13;;;15.70;99.90;;;;;;5030197;28;20074;-63
2022/07/10 06:19:25;;;;;;;11.07;2.40;;;15.70;99.90;;;;;;5050629;28;20037;-63
2022/07/10 06:22:30;;;;;;;8.00;2.38;;;15.80;99.90;;;;;;5030191;28;20128;-63
2022/07/10 06:24:38;;;;;;;7.65;2.10;;;15.80;99.90;;;;;;5048216;28;20111;-63
2022/07/10 06:27:04;;;;;;;8.25;2.50;;;15.80;99.90;;;;;;5032438;28;20091;-63
2022/07/10 06:29:30;;;;;;;9.68;2.30;;;15.70;99.90;;;;;;5048483;28;20032;-63
2022/07/10 06:31:55;;;;;;;9.35;2.00;;;15.70;99.90;;;;;;5049808;28;20086;-64
2022/07/10 06:34:21;;;;;;;8.15;2.88;;;15.60;99.90;;;;;;5052188;28;20439;-63
2022/07/10 06:36:47;;;;;;;8.38;1.92;;;15.60;99.90;;;;;;5032481;28;20454;-63
2022/07/10 06:39:13;;;;;;;7.80;2.10;;;15.50;99.90;;;;;;5029349;28;20124;-63
2022/07/10 06:41:39;;;;;;;9.88;2.10;;;15.50;99.90;;;;;;5047102;28;20370;-63
2022/07/10 06:44:05;;;;;;;5.82;2.10;;;15.60;99.90;;;;;;5033416;28;20469;-63
2022/07/10 06:46:32;;;;;;;7.95;2.00;;;15.50;99.90;;;;;;5049747;28;20131;-63
2022/07/10 06:48:59;;;;;;;6.00;2.20;;;15.60;99.90;;;;;;5048678;28;20041;-63
2022/07/10 06:51:25;;;;;;;7.75;2.13;;;15.60;99.90;;;;;;5049235;28;20343;-63
2022/07/10 06:53:51;;;;;;;8.55;2.20;;;15.70;99.90;;;;;;5031943;28;20056;-63
2022/07/10 06:56:17;;;;;;;8.73;2.00;;;15.60;99.90;;;;;;5027946;28;20041;-63
2022/07/10 06:58:43;;;;;;;6.90;2.13;;;15.60;99.90;;;;;;5032299;28;20083;-64
2022/07/10 07:01:08;;;;;;;5.75;1.80;;;15.50;99.90;;;;;;5047155;28;20045;-63
2022/07/10 07:03:34;;;;;;;6.90;2.00;;;15.60;99.90;;;;;;5033817;28;20425;-64
2022/07/10 07:06:00;;;;;;;4.93;2.00;;;15.60;99.90;;;;;;5047148;28;20120;-64
2022/07/10 07:08:25;;;;;;;7.22;2.00;;;15.60;99.90;;;;;;5049499;28;20033;-63
2022/07/10 07:10:51;;;;;;;6.78;1.95;;;15.70;99.90;;;;;;5034049;28;20124;-64
2022/07/10 07:13:17;;;;;;;6.68;1.83;;;15.80;99.90;;;;;;5044441;28;20425;-63
2022/07/10 07:15:49;;;;;;;6.25;1.98;;;15.90;99.90;;;;;;5018350;28;20067;-63
2022/07/10 07:18:16;;;;;;;6.28;1.98;;;16.00;99.90;;;;;;5046780;28;20037;-63
2022/07/10 07:23:27;;;;;;;6.88;2.33;;;16.00;99.90;;;;;;5046163;28;20045;-64
2022/07/10 07:25:52;;;;;;;5.53;1.65;;;16.00;99.90;;;;;;5044660;28;20040;-64
2022/07/10 07:28:20;;;;;;;3.50;1.83;;;16.00;99.90;;;;;;5047461;28;20040;-63
2022/07/10 07:30:46;;;;;;;4.70;1.67;;;15.90;99.90;;;;;;5038484;28;20034;-64
2022/07/10 07:33:12;;;;;;;3.63;1.48;;;15.70;99.90;;;;;;5040923;28;20048;-63
2022/07/10 07:35:39;;;;;;;2.78;1.60;;;15.70;99.90;;;;;;5041476;28;20352;-64
2022/07/10 07:38:05;;;;;;;7.53;1.88;;;15.70;99.90;;;;;;5020009;28;20462;-65
2022/07/10 07:40:31;;;;;;;2.88;1.60;;;15.60;99.90;;;;;;5041506;28;20051;-65
2022/07/10 07:42:58;;;;;;;4.95;1.65;;;15.60;99.90;;;;;;5041770;28;20048;-64
2022/07/10 07:45:24;;;;;;;3.42;1.38;;;15.70;99.90;;;;;;5043056;28;20029;-64
2022/07/10 07:47:57;;;;;;;4.72;1.88;;;15.60;99.90;;;;;;5019306;28;20607;-64
2022/07/10 07:50:26;;;;;;;3.78;1.90;;;15.60;99.90;;;;;;5033081;28;20041;-65
2022/07/10 07:52:52;;;;;;;3.25;1.38;;;15.60;99.90;;;;;;5039894;28;20059;-64
2022/07/10 07:55:19;;;;;;;6.82;1.77;;;15.60;99.90;;;;;;5037099;28;20037;-64
2022/07/10 07:57:46;;;;;;;6.15;1.63;;;15.50;99.90;;;;;;5033732;28;20040;-64
2022/07/10 08:00:13;;;;;;;4.75;1.73;;;15.50;99.90;;;;;;5046034;28;20048;-63
2022/07/10 08:02:39;;;;;;;4.28;1.80;;;15.50;99.90;;;;;;5050240;28;20029;-65
2022/07/10 08:05:06;;;;;;;3.35;1.70;;;15.60;99.90;;;;;;5026739;28;20504;-64
2022/07/10 08:07:44;;;;;;;5.00;1.70;;;15.60;99.90;;;;;;5032712;28;20435;-64
2022/07/10 08:10:13;;;;;;;5.47;1.83;;;15.60;99.90;;;;;;5047267;28;20384;-64
2022/07/10 08:12:40;;;;;;;8.25;1.63;;;15.60;99.90;;;;;;5046945;28;20041;-64
2022/07/10 08:15:08;;;;;;;3.88;1.92;;;15.60;99.90;;;;;;5031332;28;20077;-65
2022/07/10 08:17:34;;;;;;;3.58;1.60;;;15.60;99.90;;;;;;5047964;28;20037;-65
2022/07/10 08:20:00;;;;;;;8.27;1.70;;;15.70;99.90;;;;;;5022346;28;20060;-64
2022/07/10 08:22:25;;;;;;;5.07;2.13;;;15.90;99.90;;;;;;5044439;28;20060;-63
2022/07/10 08:24:51;;;;;;;6.20;1.77;;;15.90;99.90;;;;;;5041616;28;20462;-64
2022/07/10 08:27:17;;;;;;;7.60;1.80;;;16.00;99.90;;;;;;5045572;28;20063;-64
2022/07/10 08:29:43;;;;;;;5.55;1.88;;;16.10;99.90;;;;;;5048132;28;20431;-64
2022/07/10 08:32:09;;;;;;;6.03;1.63;;;16.10;99.90;;;;;;5049994;28;20488;-64
2022/07/10 08:34:35;;;;;;;4.32;1.50;;;16.10;99.90;;;;;;5032297;28;20042;-64
2022/07/10 08:37:01;;;;;;;5.90;2.05;;;16.10;99.90;;;;;;5016762;28;20079;-64
2022/07/10 08:39:27;;;;;;;8.57;1.85;;;16.20;99.90;;;;;;5045351;28;20344;-65
2022/07/10 08:41:53;;;;;;;8.38;2.00;;;16.10;99.90;;;;;;5047792;28;20082;-64
2022/07/10 08:44:19;;;;;;;6.28;1.67;;;16.10;99.90;;;;;;5027436;28;20029;-64
2022/07/10 08:46:45;;;;;;;3.42;1.67;;;16.20;99.90;;;;;;5047532;28;20040;-64
2022/07/10 08:49:13;;;;;;;6.55;1.85;;;16.30;99.90;;;;;;5039824;28;20040;-64
2022/07/10 08:51:50;;;;;;;6.72;1.92;;;16.30;99.90;;;;;;5040079;28;20075;-64
2022/07/10 08:54:17;;;;;;;8.43;2.30;;;16.30;99.90;;;;;;5033569;28;20054;-64
2022/07/10 08:56:43;;;;;;;4.75;1.98;;;16.40;99.90;;;;;;5045446;28;20103;-64
2022/07/10 08:59:12;;;;;;;3.05;1.50;;;16.60;99.90;;;;;;5027932;28;20029;-65
2022/07/10 09:01:38;;;;;;;7.45;1.80;;;16.70;99.90;;;;;;5046610;28;20033;-64
2022/07/10 09:04:04;;;;;;;6.00;1.85;;;16.70;99.90;;;;;;5045703;28;20038;-64
2022/07/10 09:06:29;;;;;;;4.32;1.73;;;16.80;99.90;;;;;;5045817;28;20125;-64
2022/07/10 09:09:06;;;;;;;7.93;2.05;;;16.80;99.90;;;;;;5029302;28;20040;-64
2022/07/10 09:11:33;;;;;;;5.28;1.92;;;16.80;99.90;;;;;;5030368;28;20044;-64
2022/07/10 09:14:07;;;;;;;6.38;1.65;;;16.60;99.90;;;;;;5036129;28;20044;-64
2022/07/10 09:16:38;;;;;;;7.65;2.03;;;16.50;99.90;;;;;;5028957;28;20045;-64
2022/07/10 09:19:26;;;;;;;6.43;1.73;;;16.50;99.90;;;;;;5034363;28;20041;-64
2022/07/10 09:22:06;;;;;;;7.00;1.80;;;16.50;99.90;;;;;;5033262;28;20116;-64
2022/07/10 09:24:40;;;;;;;6.38;1.45;;;16.60;99.90;;;;;;5046521;28;20037;-65
2022/07/10 09:27:06;;;;;;;5.35;1.58;;;16.60;99.90;;;;;;5029045;28;20052;-65
2022/07/10 09:29:43;;;;;;;6.15;1.58;;;16.90;99.90;;;;;;5048102;28;20082;-64
2022/07/10 09:32:09;;;;;;;6.15;1.50;;;17.10;99.90;;;;;;5048027;28;20393;-64
2022/07/10 09:34:39;;;;;;;3.45;1.13;;;17.30;99.90;;;;;;5048990;28;20033;-64
2022/07/10 09:37:27;;;;;;;4.13;1.35;;;17.60;99.90;;;;;;5046816;28;20049;-64
2022/07/10 09:39:56;;;;;;;3.83;1.90;;;17.90;99.90;;;;;;5029455;28;20037;-65
2022/07/10 09:42:30;;;;;;;6.93;1.40;;;18.00;99.90;;;;;;5047353;28;20140;-64
2022/07/10 09:45:12;;;;;;;6.38;1.52;;;18.10;99.90;;;;;;5053623;28;20095;-63
2022/07/10 09:47:51;;;;;;;5.28;1.50;;;18.10;99.90;;;;;;5017266;28;20457;-64
2022/07/10 09:50:29;;;;;;;9.65;1.65;;;18.10;99.90;;;;;;5038439;28;20059;-64
2022/07/10 09:52:59;;;;;;;6.32;1.67;;;18.00;99.90;;;;;;5048780;28;20354;-64
2022/07/10 09:55:30;;;;;;;4.80;1.65;;;17.90;99.90;;;;;;5033145;28;20049;-64
2022/07/10 09:58:07;;;;;;;4.22;1.80;;;17.70;99.90;;;;;;5025613;28;20041;-64
2022/07/10 10:00:37;;;;;;;5.80;1.65;;;17.70;99.90;;;;;;5048659;28;20045;-64
2022/07/10 10:03:05;;;;;;;4.18;1.85;;;17.70;99.90;;;;;;5048772;28;20029;-65
2022/07/10 10:05:34;;;;;;;4.90;1.55;;;17.70;99.90;;;;;;5031806;28;21294;-64
2022/07/10 10:08:19;;;;;;;5.43;1.80;;;17.60;99.90;;;;;;5029802;28;20044;-64
2022/07/10 10:10:47;;;;;;;6.05;1.70;;;17.60;99.90;;;;;;5049500;28;20418;-64
2022/07/10 10:13:20;;;;;;;4.97;1.90;;;17.70;99.90;;;;;;5043022;28;20363;-65
2022/07/10 10:15:51;;;;;;;5.35;1.88;;;17.70;99.90;;;;;;5031430;28;20041;-64
2022/07/10 10:18:25;;;;;;;5.22;1.92;;;17.60;99.90;;;;;;5038423;28;20041;-64
2022/07/10 10:20:52;;;;;;;;;;;17.70;99.90;;;;;;5042978;28;20103;-65
2022/07/10 10:23:23;;;;;;;5.50;1.80;;;17.60;99.90;;;;;;5043580;28;19978;-64
2022/07/10 10:25:50;;;;;;;7.25;1.90;;;17.70;99.90;;;;;;5045545;28;20092;-64
2022/07/10 10:28:25;;;;;;;4.90;2.17;;;17.60;99.90;;;;;;5031289;28;20370;-64
2022/07/10 10:30:59;;;;;;;5.85;1.73;;;17.70;99.90;;;;;;5033044;28;20382;-64
2022/07/10 10:33:34;;;;;;;3.47;1.65;;;17.80;99.90;;;;;;5022958;28;20105;-65
2022/07/10 10:36:00;;;;;;;6.15;1.65;;;18.00;99.90;;;;;;5048344;28;20053;-64
2022/07/10 10:38:48;;;;;;;4.72;1.50;;;18.40;99.90;;;;;;5027512;28;20041;-65
2022/07/10 10:41:41;;;;;;;7.65;2.08;;;18.60;99.90;;;;;;5041734;28;20036;-65
2022/07/10 10:44:13;;;;;;;5.95;2.13;;;19.10;99.90;;;;;;5042316;28;20045;-64
2022/07/10 10:46:50;;;;;;;6.70;1.83;;;19.40;99.90;;;;;;5044598;28;20045;-64
2022/07/10 10:49:17;;;;;;;3.90;1.88;;;19.40;99.90;;;;;;5028692;28;20033;-64
2022/07/10 10:52:13;;;;;;;5.82;1.90;;;19.10;99.90;;;;;;5032094;28;20360;-64
2022/07/10 10:54:57;;;;;;;6.90;1.88;;;18.70;99.90;;;;;;5024762;28;20057;-65
2022/07/10 10:57:43;;;;;;;7.40;1.90;;;18.50;99.90;;;;;;5034864;28;20045;-64
2022/07/10 11:00:13;;;;;;;8.50;2.15;;;18.50;99.90;;;;;;5049223;28;20140;-66
2022/07/10 11:02:39;;;;;;;4.85;1.67;;;18.70;99.90;;;;;;5031290;28;20090;-65
2022/07/10 11:05:11;;;;;;;6.47;1.90;;;19.00;99.90;;;;;;5027963;28;20036;-64
2022/07/10 11:08:03;;;;;;;7.47;1.80;;;19.30;99.90;;;;;;5038045;28;20037;-64
2022/07/10 11:10:30;;;;;;;5.20;1.40;;;19.40;99.90;;;;;;5027579;28;20055;-63
2022/07/10 11:13:13;;;;;;;7.10;1.80;;;19.60;99.90;;;;;;5047190;28;20052;-64
2022/07/10 11:15:53;;;;;;;3.97;1.55;;;19.70;99.90;;;;;;5043944;28;20131;-62
2022/07/10 11:18:22;;;;;;;6.38;1.70;;;19.60;99.90;;;;;;5015592;28;20167;-62
2022/07/10 11:20:49;;;;;;;6.30;1.63;;;19.60;99.90;;;;;;5034315;28;20355;-62
2022/07/10 11:23:37;;;;;;;6.38;1.90;;;19.30;99.90;;;;;;5028388;28;20128;-62
2022/07/10 11:26:08;;;;;;;4.03;1.55;;;19.40;99.90;;;;;;5048765;28;20048;-62
2022/07/10 11:28:53;;;;;;;5.57;1.80;;;19.40;99.90;;;;;;5048913;28;20087;-63
2022/07/10 11:31:20;;;;;;;5.70;1.92;;;19.50;99.90;;;;;;5046006;28;20037;-63
2022/07/10 11:33:50;;;;;;;5.40;1.50;;;19.40;99.90;;;;;;5031622;28;20137;-63
2022/07/10 11:36:32;;;;;;;4.70;1.70;;;19.20;99.90;;;;;;5028385;28;20041;-63
2022/07/10 11:38:58;;;;;;;3.92;1.70;;;19.00;99.90;;;;;;5033846;28;20049;-63
2022/07/10 11:41:25;;;;;;;3.80;1.50;;;18.70;99.90;;;;;;5031133;28;20036;-63
2022/07/10 11:43:55;;;;;;;7.93;1.88;;;18.60;99.90;;;;;;5049880;28;20371;-63
2022/07/10 11:46:26;;;;;;;3.65;1.52;;;18.50;99.90;;;;;;5027674;28;20069;-62
2022/07/10 11:48:54;;;;;;;4.82;1.70;;;18.70;99.90;;;;;;5030606;28;20044;-63
2022/07/10 11:51:30;;;;;;;4.05;1.60;;;18.90;99.90;;;;;;5028240;28;20355;-62
2022/07/10 11:54:00;;;;;;;4.03;1.40;;;19.00;99.90;;;;;;5028585;28;20069;-62
2022/07/10 11:56:27;;;;;;;3.47;1.38;;;19.30;99.90;;;;;;5046752;28;20037;-62
2022/07/10 11:58:57;;;;;;;4.68;1.58;;;19.30;99.90;;;;;;5054125;28;20112;-62
2022/07/10 12:01:23;;;;;;;4.45;1.50;;;19.40;99.90;;;;;;5029579;28;20348;-62
2022/07/10 12:03:56;;;;;;;4.88;1.60;;;19.40;99.90;;;;;;5052776;28;20056;-62
2022/07/10 12:06:23;;;;;;;5.15;1.67;;;19.50;99.90;;;;;;5046774;28;20039;-62
2022/07/10 12:08:49;;;;;;;6.72;1.63;;;19.50;99.90;;;;;;5046052;28;20052;-62
2022/07/10 12:11:18;;;;;;;4.80;1.65;;;19.50;99.90;;;;;;5045365;28;20034;-62
2022/07/10 12:13:45;;;;;;;6.07;1.45;;;19.40;99.90;;;;;;5032965;28;20427;-63
2022/07/10 12:16:13;;;;;;;4.70;1.65;;;19.40;99.90;;;;;;5051485;28;20091;-62
2022/07/10 12:18:41;;;;;;;5.55;1.60;;;19.30;99.90;;;;;;5049844;28;20052;-63
2022/07/10 12:21:08;;;;;;;3.15;1.30;;;19.30;99.90;;;;;;5030273;28;20064;-63
2022/07/10 12:23:38;;;;;;;3.55;1.50;;;19.50;99.90;;;;;;5045060;28;20100;-62
2022/07/10 12:26:04;;;;;;;3.85;1.45;;;19.50;99.90;;;;;;5045206;28;20045;-62
2022/07/10 12:28:30;;;;;;;4.03;1.50;;;19.40;99.90;;;;;;5048477;28;20041;-62
2022/07/10 12:30:56;;;;;;;5.35;1.48;;;19.50;99.90;;;;;;5048612;28;20413;-62
2022/07/10 12:33:23;;;;;;;4.07;1.60;;;19.50;99.90;;;;;;5047433;28;20407;-62
2022/07/10 12:35:58;;;;;;;4.40;1.80;;;19.40;99.90;;;;;;5050067;28;20033;-62
2022/07/10 12:38:30;;;;;;;4.03;1.45;;;19.50;99.90;;;;;;5031885;28;20040;-63
2022/07/10 12:41:12;;;;;;;3.40;1.50;;;19.50;99.90;;;;;;5048599;28;20047;-63
2022/07/10 12:43:39;;;;;;;4.65;1.30;;;19.60;99.90;;;;;;5045313;28;20037;-63
2022/07/10 12:46:15;;;;;;;3.50;1.27;;;19.70;99.90;;;;;;5048814;28;20099;-62
2022/07/10 12:49:07;;;;;;;7.80;1.83;;;19.70;99.90;;;;;;5026994;28;20425;-62
2022/07/10 12:51:43;;;;;;;4.78;1.60;;;19.70;99.90;;;;;;5051299;28;20504;-62
2022/07/10 12:54:08;;;;;;;2.17;1.15;;;19.70;99.90;;;;;;5046900;28;20446;-63
2022/07/10 12:56:36;;;;;;;5.78;1.60;;;19.70;99.90;;;;;;5032852;28;20072;-62
2022/07/10 12:59:21;;;;;;;3.85;1.55;;;19.70;99.90;;;;;;5050103;28;20044;-63